Tucuma, Brazil
Current Conditions -  °F | °C
As of 8:00 PM on Wednesday 26 Nov 2014 (Local Time) from SBMA Reporting Station
Clear Clear  
Wind Chill: 79°   Ceiling: Unl
Heat Index: 83°   Visibility: 6mi
Dew Point: 77°   Wind: 1mph
Humidity: 94%   Direction: 30°NNE
Pressure: 29.77"   Gusts: NA
Location:  6.75°S, 51.16°W
Report Text: SBMA 262300Z 03001KT CAVOK 26/25 Q1008
Loading
Personal Weather Stations






























Interactive Weather Map New forecast layout! Learn more

10-Day Weather Forecast

Advertisements
Track Severe Weather on mobile